createdAt,value
2023-07-27T00:00:09.324Z,24.57
2023-07-27T00:00:29.954Z,24.58
2023-07-27T00:00:50.591Z,24.60
2023-07-27T00:01:11.224Z,24.60
2023-07-27T00:01:31.835Z,24.58
2023-07-27T00:01:52.446Z,24.60
2023-07-27T00:02:13.058Z,24.60
2023-07-27T00:02:33.699Z,24.60
2023-07-27T00:02:54.463Z,24.58
2023-07-27T00:03:15.200Z,24.58
2023-07-27T00:03:35.906Z,24.57
2023-07-27T00:03:56.568Z,24.61
2023-07-27T00:04:17.212Z,24.60
2023-07-27T00:04:37.823Z,24.60
2023-07-27T00:04:58.426Z,24.60
2023-07-27T00:05:19.057Z,24.61
2023-07-27T00:05:39.691Z,24.58
2023-07-27T00:06:00.321Z,24.61
2023-07-27T00:06:20.931Z,24.57
2023-07-27T00:06:41.539Z,24.60
2023-07-27T00:07:02.154Z,24.58
2023-07-27T00:07:22.778Z,24.60
2023-07-27T00:07:43.373Z,24.60
2023-07-27T00:08:04.056Z,24.60
2023-07-27T00:08:24.677Z,24.58
2023-07-27T00:08:45.293Z,24.58
2023-07-27T00:09:06.432Z,24.58
2023-07-27T00:09:26.545Z,24.58
2023-07-27T00:09:47.156Z,24.58
2023-07-27T00:10:07.777Z,24.58
2023-07-27T00:10:28.381Z,24.61
2023-07-27T00:10:48.992Z,24.57
2023-07-27T00:11:09.636Z,24.58
2023-07-27T00:11:30.252Z,24.58
2023-07-27T00:11:50.913Z,24.60
2023-07-27T00:12:11.480Z,24.57
2023-07-27T00:12:32.092Z,24.58
2023-07-27T00:12:52.740Z,24.58
2023-07-27T00:13:13.334Z,24.57
2023-07-27T00:13:33.937Z,24.58
2023-07-27T00:13:54.744Z,24.58
2023-07-27T00:14:15.338Z,24.61
2023-07-27T00:14:35.945Z,24.58
2023-07-27T00:14:56.547Z,24.57
2023-07-27T00:15:17.154Z,24.58
2023-07-27T00:15:37.771Z,24.57
2023-07-27T00:15:58.392Z,24.57
2023-07-27T00:16:19.050Z,24.55
2023-07-27T00:16:39.659Z,24.54
2023-07-27T00:17:00.290Z,24.57
2023-07-27T00:17:20.918Z,24.54
2023-07-27T00:17:41.531Z,24.57
2023-07-27T00:18:02.199Z,24.58
2023-07-27T00:18:22.789Z,24.57
2023-07-27T00:18:43.390Z,24.58
2023-07-27T00:19:04.011Z,24.57
2023-07-27T00:19:25.460Z,24.58
2023-07-27T00:19:45.588Z,24.55
2023-07-27T00:20:06.172Z,24.58
2023-07-27T00:20:26.796Z,24.57
2023-07-27T00:20:47.392Z,24.58
2023-07-27T00:21:08.008Z,24.54
2023-07-27T00:21:28.646Z,24.58
2023-07-27T00:21:49.252Z,24.58
2023-07-27T00:22:09.858Z,24.54
2023-07-27T00:22:30.501Z,24.54
2023-07-27T00:22:51.119Z,24.55
2023-07-27T00:23:11.866Z,24.55
2023-07-27T00:23:32.485Z,24.58
2023-07-27T00:23:53.140Z,24.55
2023-07-27T00:24:13.768Z,24.57
2023-07-27T00:24:34.398Z,24.55
2023-07-27T00:24:55.050Z,24.55
2023-07-27T00:25:15.671Z,24.57
2023-07-27T00:25:36.279Z,24.57
2023-07-27T00:25:56.900Z,24.57
2023-07-27T00:26:17.504Z,24.57
2023-07-27T00:26:38.130Z,24.55
2023-07-27T00:26:58.746Z,24.55
2023-07-27T00:27:19.359Z,24.57
2023-07-27T00:27:39.976Z,24.57
2023-07-27T00:28:00.602Z,24.55
2023-07-27T00:28:21.232Z,24.57
2023-07-27T00:28:41.847Z,24.54
2023-07-27T00:29:02.488Z,24.53
2023-07-27T00:29:23.097Z,24.55
2023-07-27T00:29:43.746Z,24.55
2023-07-27T00:30:04.356Z,24.55
2023-07-27T00:30:24.974Z,24.57
2023-07-27T00:30:45.607Z,24.57
2023-07-27T00:31:06.304Z,24.54
2023-07-27T00:31:26.986Z,24.53
2023-07-27T00:31:47.599Z,24.54
2023-07-27T00:32:08.220Z,24.55
2023-07-27T00:32:28.834Z,24.55
2023-07-27T00:32:49.552Z,24.57
2023-07-27T00:33:10.184Z,24.53
2023-07-27T00:33:30.809Z,24.55
2023-07-27T00:33:51.429Z,24.55
2023-07-27T00:34:12.063Z,24.55
2023-07-27T00:34:32.695Z,24.53
2023-07-27T00:34:53.321Z,24.54
2023-07-27T00:35:13.948Z,24.55
2023-07-27T00:35:34.551Z,24.55
2023-07-27T00:35:55.239Z,24.53
2023-07-27T00:36:15.857Z,24.54
2023-07-27T00:36:36.715Z,24.54
2023-07-27T00:36:57.443Z,24.55
2023-07-27T00:37:18.058Z,24.54
2023-07-27T00:37:38.685Z,24.54
2023-07-27T00:37:59.294Z,24.55
2023-07-27T00:38:19.915Z,24.54
2023-07-27T00:38:40.539Z,24.54
2023-07-27T00:39:01.157Z,24.55
2023-07-27T00:39:21.810Z,24.54
2023-07-27T00:39:42.436Z,24.53
2023-07-27T00:40:03.042Z,24.54
2023-07-27T00:40:23.672Z,24.57
2023-07-27T00:40:44.297Z,24.58
2023-07-27T00:41:04.941Z,24.58
2023-07-27T00:41:25.552Z,24.54
2023-07-27T00:41:46.198Z,24.54
2023-07-27T00:42:06.769Z,24.54
2023-07-27T00:42:27.385Z,24.54
2023-07-27T00:42:48.009Z,24.54
2023-07-27T00:43:08.629Z,24.53
2023-07-27T00:43:29.256Z,24.54
2023-07-27T00:43:49.900Z,24.55
2023-07-27T00:44:10.492Z,24.54
2023-07-27T00:44:31.131Z,24.53
2023-07-27T00:44:51.755Z,24.55
2023-07-27T00:45:12.396Z,24.54
2023-07-27T00:45:33.092Z,24.54
2023-07-27T00:45:53.705Z,24.55
2023-07-27T00:46:14.323Z,24.53
2023-07-27T00:46:35.121Z,24.54
2023-07-27T00:46:55.485Z,24.51
2023-07-27T00:47:16.068Z,24.54
2023-07-27T00:47:36.712Z,24.54
2023-07-27T00:47:57.399Z,24.55
2023-07-27T00:48:18.028Z,24.54
2023-07-27T00:48:38.639Z,24.53
2023-07-27T00:48:59.260Z,24.54
2023-07-27T00:49:19.900Z,24.55
2023-07-27T00:49:40.501Z,24.54
2023-07-27T00:50:01.111Z,24.55
2023-07-27T00:50:21.707Z,24.53
2023-07-27T00:50:42.325Z,24.54
2023-07-27T00:51:02.943Z,24.54
2023-07-27T00:51:23.550Z,24.53
2023-07-27T00:51:44.188Z,24.53
2023-07-27T00:52:04.786Z,24.53
2023-07-27T00:52:25.413Z,24.54
2023-07-27T00:52:46.036Z,24.53
2023-07-27T00:53:06.677Z,24.54
2023-07-27T00:53:27.322Z,24.53
2023-07-27T00:53:47.936Z,24.53
2023-07-27T00:54:08.565Z,24.54
2023-07-27T00:54:29.825Z,24.55
2023-07-27T00:54:49.933Z,24.51
2023-07-27T00:55:10.555Z,24.53
2023-07-27T00:55:31.196Z,24.54
2023-07-27T00:55:51.799Z,24.53
2023-07-27T00:56:12.420Z,24.55
2023-07-27T00:56:33.186Z,24.54
2023-07-27T00:56:53.914Z,24.51
2023-07-27T00:57:14.521Z,24.54
2023-07-27T00:57:35.147Z,24.54
2023-07-27T00:57:55.831Z,24.51
2023-07-27T00:58:16.475Z,24.51
2023-07-27T00:58:37.087Z,24.55
2023-07-27T00:58:57.701Z,24.53
2023-07-27T00:59:18.320Z,24.54
2023-07-27T00:59:38.933Z,24.51
2023-07-27T00:59:59.552Z,24.50
2023-07-27T01:00:20.176Z,24.53
2023-07-27T01:00:40.794Z,24.54
2023-07-27T01:01:01.405Z,24.53
2023-07-27T01:01:22.036Z,24.53
2023-07-27T01:01:42.668Z,24.53
2023-07-27T01:02:03.360Z,24.53
2023-07-27T01:02:24.070Z,24.53
2023-07-27T01:02:44.728Z,24.53
2023-07-27T01:03:05.432Z,24.53
2023-07-27T01:03:26.091Z,24.48
2023-07-27T01:03:46.800Z,24.54
2023-07-27T01:04:07.380Z,24.53
2023-07-27T01:04:27.997Z,24.50
2023-07-27T01:04:48.613Z,24.51
2023-07-27T01:05:09.263Z,24.53
2023-07-27T01:05:29.859Z,24.53
2023-07-27T01:05:50.494Z,24.53
2023-07-27T01:06:11.079Z,24.53
2023-07-27T01:06:32.100Z,24.53
2023-07-27T01:06:52.391Z,24.48
2023-07-27T01:07:13.024Z,24.51
2023-07-27T01:07:33.652Z,24.53
2023-07-27T01:07:54.269Z,24.54
2023-07-27T01:08:14.895Z,24.54
2023-07-27T01:08:35.538Z,24.53
2023-07-27T01:08:56.157Z,24.50
2023-07-27T01:09:16.793Z,24.54
2023-07-27T01:09:37.412Z,24.50
2023-07-27T01:09:58.025Z,24.51
2023-07-27T01:10:18.643Z,24.53
2023-07-27T01:10:39.252Z,24.51
2023-07-27T01:10:59.859Z,24.51
2023-07-27T01:11:20.469Z,24.50
2023-07-27T01:11:41.078Z,24.51
2023-07-27T01:12:01.683Z,24.53
2023-07-27T01:12:22.295Z,24.51
2023-07-27T01:12:42.912Z,24.48
2023-07-27T01:13:03.532Z,24.50
2023-07-27T01:13:24.126Z,24.51
2023-07-27T01:13:44.745Z,24.54
2023-07-27T01:14:05.355Z,24.50
2023-07-27T01:14:25.968Z,24.53
2023-07-27T01:14:46.593Z,24.53
2023-07-27T01:15:07.208Z,24.51
2023-07-27T01:15:27.816Z,24.53
2023-07-27T01:15:48.438Z,24.51
2023-07-27T01:16:09.086Z,24.53
2023-07-27T01:16:29.781Z,24.51
2023-07-27T01:16:50.457Z,24.51
2023-07-27T01:17:11.086Z,24.53
2023-07-27T01:17:31.743Z,24.51
2023-07-27T01:17:52.387Z,24.53
2023-07-27T01:18:12.988Z,24.53
2023-07-27T01:18:33.607Z,24.48
2023-07-27T01:18:54.239Z,24.50
2023-07-27T01:19:14.851Z,24.51
2023-07-27T01:19:35.462Z,24.53
2023-07-27T01:19:56.107Z,24.51
2023-07-27T01:20:16.742Z,24.50
2023-07-27T01:20:37.354Z,24.51
2023-07-27T01:20:57.966Z,24.50
2023-07-27T01:21:18.608Z,24.48
2023-07-27T01:21:39.210Z,24.51
2023-07-27T01:21:59.836Z,24.53
2023-07-27T01:22:20.447Z,24.51
2023-07-27T01:22:41.038Z,24.48
2023-07-27T01:23:01.646Z,24.50
2023-07-27T01:23:22.257Z,24.51
2023-07-27T01:23:42.904Z,24.50
2023-07-27T01:24:03.505Z,24.47
2023-07-27T01:24:24.123Z,24.53
2023-07-27T01:24:44.773Z,24.50
2023-07-27T01:25:05.361Z,24.47
2023-07-27T01:25:25.991Z,24.48
2023-07-27T01:25:46.602Z,24.51
2023-07-27T01:26:07.224Z,24.50
2023-07-27T01:26:27.844Z,24.50
2023-07-27T01:26:48.456Z,24.50
2023-07-27T01:27:09.080Z,24.51
2023-07-27T01:27:29.796Z,24.51
2023-07-27T01:27:50.427Z,24.50
2023-07-27T01:28:11.036Z,24.51
2023-07-27T01:28:31.637Z,24.48
2023-07-27T01:28:52.253Z,24.50
2023-07-27T01:29:12.864Z,24.50
2023-07-27T01:29:33.481Z,24.50
2023-07-27T01:29:54.096Z,24.47
2023-07-27T01:30:14.725Z,24.48
2023-07-27T01:30:35.325Z,24.50
2023-07-27T01:30:55.956Z,24.50
2023-07-27T01:31:16.615Z,24.50
2023-07-27T01:31:37.219Z,24.47
2023-07-27T01:31:57.932Z,24.48
2023-07-27T01:32:18.587Z,24.51
2023-07-27T01:32:39.243Z,24.51
2023-07-27T01:32:59.855Z,24.51
2023-07-27T01:33:20.460Z,24.51
2023-07-27T01:33:41.062Z,24.48
2023-07-27T01:34:01.699Z,24.51
2023-07-27T01:34:22.315Z,24.51
2023-07-27T01:34:42.934Z,24.47
2023-07-27T01:35:03.539Z,24.48
2023-07-27T01:35:24.145Z,24.48
2023-07-27T01:35:44.763Z,24.50
2023-07-27T01:36:05.383Z,24.50
2023-07-27T01:36:25.989Z,24.47
2023-07-27T01:36:46.600Z,24.53
2023-07-27T01:37:07.224Z,24.48
2023-07-27T01:37:27.829Z,24.48
2023-07-27T01:37:48.453Z,24.45
2023-07-27T01:38:09.146Z,24.48
2023-07-27T01:38:29.747Z,24.48
2023-07-27T01:38:50.370Z,24.51
2023-07-27T01:39:10.998Z,24.50
2023-07-27T01:39:31.607Z,24.48
2023-07-27T01:39:52.226Z,24.47
2023-07-27T01:40:12.845Z,24.48
2023-07-27T01:40:33.468Z,24.48
2023-07-27T01:40:54.076Z,24.50
2023-07-27T01:41:14.694Z,24.50
2023-07-27T01:41:35.318Z,24.50
2023-07-27T01:41:55.926Z,24.47
2023-07-27T01:42:16.559Z,24.50
2023-07-27T01:42:37.163Z,24.47
2023-07-27T01:42:57.788Z,24.48
2023-07-27T01:43:18.416Z,24.48
2023-07-27T01:43:39.023Z,24.47
2023-07-27T01:43:59.633Z,24.50
2023-07-27T01:44:20.284Z,24.50
2023-07-27T01:44:40.905Z,24.48
2023-07-27T01:45:01.524Z,24.48
2023-07-27T01:45:22.178Z,24.48
2023-07-27T01:45:42.803Z,24.45
2023-07-27T01:46:03.489Z,24.45
2023-07-27T01:46:24.119Z,24.50
2023-07-27T01:46:44.806Z,24.45
2023-07-27T01:47:05.425Z,24.48
2023-07-27T01:47:26.363Z,24.48
2023-07-27T01:47:46.992Z,24.47
2023-07-27T01:48:07.596Z,24.50
2023-07-27T01:48:28.204Z,24.47
2023-07-27T01:48:48.818Z,24.47
2023-07-27T01:49:09.419Z,24.48
2023-07-27T01:49:30.059Z,24.43
2023-07-27T01:49:50.653Z,24.45
2023-07-27T01:50:11.294Z,24.47
2023-07-27T01:50:31.892Z,24.45
2023-07-27T01:50:52.502Z,24.48
2023-07-27T01:51:13.119Z,24.47
2023-07-27T01:51:33.763Z,24.45
2023-07-27T01:51:54.357Z,24.45
2023-07-27T01:52:14.969Z,24.48
2023-07-27T01:52:35.595Z,24.47
2023-07-27T01:52:56.247Z,24.45
2023-07-27T01:53:16.851Z,24.48
2023-07-27T01:53:37.528Z,24.48
2023-07-27T01:53:58.126Z,24.47
2023-07-27T01:54:18.748Z,24.48
2023-07-27T01:54:39.372Z,24.50
2023-07-27T01:55:00.004Z,24.50
2023-07-27T01:55:20.607Z,24.47
2023-07-27T01:55:41.255Z,24.50
2023-07-27T01:56:01.865Z,24.43
2023-07-27T01:56:22.471Z,24.45
2023-07-27T01:56:43.094Z,24.45
2023-07-27T01:57:03.743Z,24.50
2023-07-27T01:57:24.369Z,24.45
2023-07-27T01:57:44.965Z,24.48
2023-07-27T01:58:05.622Z,24.48
2023-07-27T01:58:26.217Z,24.48
2023-07-27T01:58:46.817Z,24.45
2023-07-27T01:59:07.426Z,24.43
2023-07-27T01:59:28.043Z,24.45
2023-07-27T01:59:48.698Z,24.43
2023-07-27T02:00:09.302Z,24.50
2023-07-27T02:00:29.909Z,24.43
2023-07-27T02:00:50.541Z,24.45
2023-07-27T02:01:11.176Z,24.47
2023-07-27T02:01:31.856Z,24.45
2023-07-27T02:01:52.484Z,24.43
2023-07-27T02:02:13.075Z,24.47
2023-07-27T02:02:33.717Z,24.45
2023-07-27T02:02:54.390Z,24.43
2023-07-27T02:03:15.025Z,24.43
2023-07-27T02:03:35.641Z,24.43
2023-07-27T02:03:56.271Z,24.47
2023-07-27T02:04:16.903Z,24.48
2023-07-27T02:04:37.544Z,24.45
2023-07-27T02:04:58.214Z,24.45
2023-07-27T02:05:18.811Z,24.45
2023-07-27T02:05:39.380Z,24.42
2023-07-27T02:05:59.993Z,24.42
2023-07-27T02:06:20.603Z,24.42
2023-07-27T02:06:41.216Z,24.45
2023-07-27T02:07:01.815Z,24.45
2023-07-27T02:07:22.433Z,24.43
2023-07-27T02:07:43.036Z,24.43
2023-07-27T02:08:03.653Z,24.43
2023-07-27T02:08:24.277Z,24.42
2023-07-27T02:08:44.894Z,24.42
2023-07-27T02:09:05.519Z,24.42
2023-07-27T02:09:26.130Z,24.43
2023-07-27T02:09:46.731Z,24.47
2023-07-27T02:10:07.373Z,24.47
2023-07-27T02:10:27.994Z,24.42
2023-07-27T02:10:48.612Z,24.45
2023-07-27T02:11:09.216Z,24.42
2023-07-27T02:11:29.856Z,24.45
2023-07-27T02:11:50.493Z,24.45
2023-07-27T02:12:11.101Z,24.40
2023-07-27T02:12:31.758Z,24.45
2023-07-27T02:12:52.371Z,24.45
2023-07-27T02:13:12.988Z,24.43
2023-07-27T02:13:33.594Z,24.45
2023-07-27T02:13:54.206Z,24.45
2023-07-27T02:14:14.864Z,24.45
2023-07-27T02:14:35.472Z,24.43
2023-07-27T02:14:56.095Z,24.45
2023-07-27T02:15:16.706Z,24.45
2023-07-27T02:15:37.362Z,24.43
2023-07-27T02:15:58.000Z,24.45
2023-07-27T02:16:18.593Z,24.43
2023-07-27T02:16:39.225Z,24.45
2023-07-27T02:16:59.815Z,24.42
2023-07-27T02:17:20.449Z,24.43
2023-07-27T02:17:41.114Z,24.43
2023-07-27T02:18:01.726Z,24.43
2023-07-27T02:18:22.327Z,24.42
2023-07-27T02:18:42.951Z,24.43
2023-07-27T02:19:03.553Z,24.42
2023-07-27T02:19:24.164Z,24.43
2023-07-27T02:19:44.770Z,24.43
2023-07-27T02:20:05.383Z,24.45
2023-07-27T02:20:26.019Z,24.42
2023-07-27T02:20:46.631Z,24.42
2023-07-27T02:21:07.251Z,24.45
2023-07-27T02:21:27.874Z,24.40
2023-07-27T02:21:48.492Z,24.42
2023-07-27T02:22:09.130Z,24.43
2023-07-27T02:22:29.758Z,24.40
2023-07-27T02:22:50.383Z,24.43
2023-07-27T02:23:10.995Z,24.47
2023-07-27T02:23:31.591Z,24.45
2023-07-27T02:23:52.196Z,24.45
2023-07-27T02:24:12.810Z,24.43
2023-07-27T02:24:33.446Z,24.42
2023-07-27T02:24:54.057Z,24.40
2023-07-27T02:25:14.665Z,24.43
2023-07-27T02:25:35.269Z,24.42
2023-07-27T02:25:55.887Z,24.45
2023-07-27T02:26:16.503Z,24.40
2023-07-27T02:26:37.139Z,24.40
2023-07-27T02:26:57.765Z,24.40
2023-07-27T02:27:18.384Z,24.42
2023-07-27T02:27:38.984Z,24.43
2023-07-27T02:27:59.625Z,24.42
2023-07-27T02:28:20.247Z,24.43
2023-07-27T02:28:40.854Z,24.42
2023-07-27T02:29:01.458Z,24.40
2023-07-27T02:29:22.083Z,24.42
2023-07-27T02:29:42.711Z,24.45
2023-07-27T02:30:03.327Z,24.43
2023-07-27T02:30:23.950Z,24.40
2023-07-27T02:30:44.573Z,24.43
2023-07-27T02:31:05.263Z,24.42
2023-07-27T02:31:25.967Z,24.42
2023-07-27T02:31:46.640Z,24.42
2023-07-27T02:32:07.252Z,24.40
2023-07-27T02:32:27.943Z,24.42
2023-07-27T02:32:48.613Z,24.42
2023-07-27T02:33:09.222Z,24.40
2023-07-27T02:33:29.830Z,24.40
2023-07-27T02:33:50.466Z,24.40
2023-07-27T02:34:11.046Z,24.42
2023-07-27T02:34:31.662Z,24.40
2023-07-27T02:34:52.271Z,24.42
2023-07-27T02:35:12.872Z,24.42
2023-07-27T02:35:33.583Z,24.40
2023-07-27T02:35:54.240Z,24.43
2023-07-27T02:36:14.910Z,24.42
2023-07-27T02:36:35.876Z,24.42
2023-07-27T02:36:56.179Z,24.42
2023-07-27T02:37:16.793Z,24.40
2023-07-27T02:37:37.406Z,24.42
2023-07-27T02:37:58.026Z,24.42
2023-07-27T02:38:18.648Z,24.39
2023-07-27T02:38:39.255Z,24.42
2023-07-27T02:38:59.878Z,24.43
2023-07-27T02:39:20.505Z,24.42
2023-07-27T02:39:41.117Z,24.42
2023-07-27T02:40:01.720Z,24.39
2023-07-27T02:40:22.346Z,24.40
2023-07-27T02:40:42.984Z,24.42
2023-07-27T02:41:03.590Z,24.43
2023-07-27T02:41:25.817Z,24.43
2023-07-27T02:41:45.042Z,24.40
2023-07-27T02:42:05.723Z,24.40
2023-07-27T02:42:26.386Z,24.42
2023-07-27T02:42:47.005Z,24.40
2023-07-27T02:43:07.615Z,24.40
2023-07-27T02:43:28.207Z,24.43
2023-07-27T02:43:48.810Z,24.42
2023-07-27T02:44:09.431Z,24.42
2023-07-27T02:44:30.025Z,24.42
2023-07-27T02:44:50.633Z,24.42
2023-07-27T02:45:11.281Z,24.38
2023-07-27T02:45:31.903Z,24.39
2023-07-27T02:45:52.571Z,24.38
2023-07-27T02:46:13.219Z,24.42
2023-07-27T02:46:34.059Z,24.43
2023-07-27T02:46:54.787Z,24.39
2023-07-27T02:47:15.416Z,24.42
2023-07-27T02:47:36.084Z,24.39
2023-07-27T02:47:56.750Z,24.40
2023-07-27T02:48:17.347Z,24.40
2023-07-27T02:48:37.959Z,24.39
2023-07-27T02:48:58.578Z,24.42
2023-07-27T02:49:19.217Z,24.40
2023-07-27T02:49:39.824Z,24.39
2023-07-27T02:50:00.447Z,24.40
2023-07-27T02:50:21.064Z,24.40
2023-07-27T02:50:41.711Z,24.39
2023-07-27T02:51:02.339Z,24.42
2023-07-27T02:51:22.943Z,24.39
2023-07-27T02:51:43.562Z,24.38
2023-07-27T02:52:04.178Z,24.40
2023-07-27T02:52:24.788Z,24.38
2023-07-27T02:52:45.404Z,24.40
2023-07-27T02:53:06.021Z,24.40
2023-07-27T02:53:26.637Z,24.39
2023-07-27T02:53:47.252Z,24.40
2023-07-27T02:54:07.868Z,24.40
2023-07-27T02:54:28.470Z,24.42
2023-07-27T02:54:49.069Z,24.40
2023-07-27T02:55:09.696Z,24.39
2023-07-27T02:55:30.306Z,24.38
2023-07-27T02:55:50.941Z,24.39
2023-07-27T02:56:11.550Z,24.40
2023-07-27T02:56:32.585Z,24.36
2023-07-27T02:56:52.933Z,24.39
2023-07-27T02:57:13.576Z,24.38
2023-07-27T02:57:34.183Z,24.40
2023-07-27T02:57:54.780Z,24.38
2023-07-27T02:58:15.418Z,24.39
2023-07-27T02:58:36.041Z,24.39
2023-07-27T02:58:56.673Z,24.39
2023-07-27T02:59:17.319Z,24.39
2023-07-27T02:59:39.408Z,24.40
2023-07-27T02:59:58.532Z,24.39
2023-07-27T03:00:19.144Z,24.36
2023-07-27T03:00:39.837Z,24.39
2023-07-27T03:01:00.482Z,24.39
2023-07-27T03:01:21.134Z,24.40
2023-07-27T03:01:41.743Z,24.39
2023-07-27T03:02:02.390Z,24.39
2023-07-27T03:02:23.038Z,24.39
2023-07-27T03:02:43.706Z,24.39
2023-07-27T03:03:04.477Z,24.39
2023-07-27T03:03:25.159Z,24.39
2023-07-27T03:03:45.803Z,24.38
2023-07-27T03:04:06.416Z,24.35
2023-07-27T03:04:27.030Z,24.38
2023-07-27T03:04:47.642Z,24.39
2023-07-27T03:05:08.243Z,24.39
2023-07-27T03:05:28.876Z,24.38
2023-07-27T03:05:49.486Z,24.39
2023-07-27T03:06:10.162Z,24.39
2023-07-27T03:06:31.302Z,24.40
2023-07-27T03:06:51.663Z,24.38
2023-07-27T03:07:12.319Z,24.40
2023-07-27T03:07:32.931Z,24.36
2023-07-27T03:07:53.559Z,24.38
2023-07-27T03:08:14.172Z,24.36
2023-07-27T03:08:34.797Z,24.39
2023-07-27T03:08:55.417Z,24.38
2023-07-27T03:09:16.044Z,24.39
2023-07-27T03:09:36.670Z,24.36
2023-07-27T03:09:57.265Z,24.39
2023-07-27T03:10:17.879Z,24.38
2023-07-27T03:10:38.524Z,24.39
2023-07-27T03:10:59.128Z,24.39
2023-07-27T03:11:19.749Z,24.36
2023-07-27T03:11:40.390Z,24.38
2023-07-27T03:12:00.993Z,24.38
2023-07-27T03:12:21.612Z,24.38
2023-07-27T03:12:42.243Z,24.36
2023-07-27T03:13:03.592Z,24.39
2023-07-27T03:13:23.502Z,24.38
2023-07-27T03:13:44.114Z,24.36
2023-07-27T03:14:04.753Z,24.38
2023-07-27T03:14:25.348Z,24.35
2023-07-27T03:14:45.963Z,24.35
2023-07-27T03:15:06.581Z,24.36
2023-07-27T03:15:27.186Z,24.38
2023-07-27T03:15:47.817Z,24.36
2023-07-27T03:16:08.427Z,24.35
2023-07-27T03:16:29.077Z,24.36
2023-07-27T03:16:49.774Z,24.35
2023-07-27T03:17:10.429Z,24.38
2023-07-27T03:17:31.040Z,24.38
2023-07-27T03:17:51.677Z,24.38
2023-07-27T03:18:12.273Z,24.38
2023-07-27T03:18:32.880Z,24.38
2023-07-27T03:18:53.492Z,24.36
2023-07-27T03:19:14.134Z,24.36
2023-07-27T03:19:34.727Z,24.38
2023-07-27T03:19:55.371Z,24.35
2023-07-27T03:20:16.001Z,24.36
2023-07-27T03:20:36.616Z,24.35
2023-07-27T03:20:57.329Z,24.35
2023-07-27T03:21:20.319Z,24.38
2023-07-27T03:21:38.697Z,24.35
2023-07-27T03:21:59.330Z,24.35
2023-07-27T03:22:20.029Z,24.36
2023-07-27T03:22:40.626Z,24.35
2023-07-27T03:23:01.241Z,24.36
2023-07-27T03:23:21.877Z,24.35
2023-07-27T03:23:42.515Z,24.39
2023-07-27T03:24:03.136Z,24.35
2023-07-27T03:24:23.756Z,24.35
2023-07-27T03:24:44.365Z,24.35
2023-07-27T03:25:04.967Z,24.38
2023-07-27T03:25:25.576Z,24.33
2023-07-27T03:25:46.212Z,24.38
2023-07-27T03:26:06.837Z,24.33
2023-07-27T03:26:27.471Z,24.38
2023-07-27T03:26:48.115Z,24.36
2023-07-27T03:27:08.718Z,24.38
2023-07-27T03:27:29.351Z,24.35
2023-07-27T03:27:49.968Z,24.33
2023-07-27T03:28:10.585Z,24.39
2023-07-27T03:28:31.207Z,24.39
2023-07-27T03:28:51.837Z,24.35
2023-07-27T03:29:12.443Z,24.35
2023-07-27T03:29:33.050Z,24.35
2023-07-27T03:29:53.659Z,24.35
2023-07-27T03:30:14.289Z,24.35
2023-07-27T03:30:34.906Z,24.33
2023-07-27T03:30:55.578Z,24.38
2023-07-27T03:31:16.220Z,24.32
2023-07-27T03:31:36.838Z,24.39
2023-07-27T03:31:57.433Z,24.35
2023-07-27T03:32:18.047Z,24.33
2023-07-27T03:32:38.706Z,24.35
2023-07-27T03:32:59.377Z,24.35
2023-07-27T03:33:19.999Z,24.35
2023-07-27T03:33:40.607Z,24.36
2023-07-27T03:34:01.230Z,24.35
2023-07-27T03:34:21.839Z,24.36
2023-07-27T03:34:42.454Z,24.36
2023-07-27T03:35:03.054Z,24.38
2023-07-27T03:35:23.671Z,24.32
2023-07-27T03:35:44.289Z,24.33
2023-07-27T03:36:04.941Z,24.35
2023-07-27T03:36:25.543Z,24.36
2023-07-27T03:36:46.145Z,24.38
2023-07-27T03:37:06.748Z,24.33
2023-07-27T03:37:27.359Z,24.35
2023-07-27T03:37:48.075Z,24.33
2023-07-27T03:38:08.720Z,24.33
2023-07-27T03:38:29.338Z,24.36
2023-07-27T03:38:49.956Z,24.35
2023-07-27T03:39:10.577Z,24.33
2023-07-27T03:39:31.227Z,24.33
2023-07-27T03:39:51.874Z,24.35
2023-07-27T03:40:12.496Z,24.38
2023-07-27T03:40:33.119Z,24.35
2023-07-27T03:40:53.992Z,24.35
2023-07-27T03:41:14.608Z,24.35
2023-07-27T03:41:35.224Z,24.32
2023-07-27T03:41:55.846Z,24.35
2023-07-27T03:42:16.438Z,24.35
2023-07-27T03:42:37.073Z,24.36
2023-07-27T03:42:57.689Z,24.38
2023-07-27T03:43:18.276Z,24.36
2023-07-27T03:43:38.918Z,24.35
2023-07-27T03:43:59.527Z,24.32
2023-07-27T03:44:20.155Z,24.35
2023-07-27T03:44:40.765Z,24.33
2023-07-27T03:45:01.373Z,24.33
2023-07-27T03:45:21.967Z,24.33
2023-07-27T03:45:42.598Z,24.36
2023-07-27T03:46:03.274Z,24.33
2023-07-27T03:46:23.919Z,24.35
2023-07-27T03:46:44.628Z,24.29
2023-07-27T03:47:05.218Z,24.33
2023-07-27T03:47:25.881Z,24.33
2023-07-27T03:47:46.762Z,24.35
2023-07-27T03:48:07.446Z,24.32
2023-07-27T03:48:28.047Z,24.33
2023-07-27T03:48:48.661Z,24.35
2023-07-27T03:49:09.285Z,24.33
2023-07-27T03:49:29.882Z,24.35
2023-07-27T03:49:50.508Z,24.35
2023-07-27T03:50:11.124Z,24.35
2023-07-27T03:50:31.734Z,24.35
2023-07-27T03:50:52.344Z,24.33
2023-07-27T03:51:13.015Z,24.36
2023-07-27T03:51:33.647Z,24.33
2023-07-27T03:51:54.255Z,24.35
2023-07-27T03:52:14.870Z,24.35
2023-07-27T03:52:35.474Z,24.35
2023-07-27T03:52:56.080Z,24.38
2023-07-27T03:53:17.606Z,24.36
2023-07-27T03:53:37.342Z,24.35
2023-07-27T03:53:57.950Z,24.33
2023-07-27T03:54:18.569Z,24.33
2023-07-27T03:54:39.170Z,24.35
2023-07-27T03:54:59.773Z,24.35
2023-07-27T03:55:20.382Z,24.35
2023-07-27T03:55:40.998Z,24.38
2023-07-27T03:56:01.603Z,24.36
2023-07-27T03:56:22.219Z,24.36
2023-07-27T03:56:42.829Z,24.36
2023-07-27T03:57:03.448Z,24.35
2023-07-27T03:57:24.062Z,24.33
2023-07-27T03:57:44.702Z,24.32
2023-07-27T03:58:05.301Z,24.33
2023-07-27T03:58:25.914Z,24.33
2023-07-27T03:58:46.513Z,24.35
2023-07-27T03:59:07.120Z,24.36
2023-07-27T03:59:27.733Z,24.36
2023-07-27T03:59:48.342Z,24.33
2023-07-27T04:00:08.969Z,24.36
2023-07-27T04:00:29.586Z,24.32
2023-07-27T04:00:50.211Z,24.36
2023-07-27T04:01:10.873Z,24.35
2023-07-27T04:01:31.494Z,24.36
2023-07-27T04:01:52.120Z,24.35
2023-07-27T04:02:12.709Z,24.35
2023-07-27T04:02:33.410Z,24.38
2023-07-27T04:02:54.190Z,24.36
2023-07-27T04:03:14.808Z,24.35
2023-07-27T04:03:35.436Z,24.35
2023-07-27T04:03:56.035Z,24.38
2023-07-27T04:04:16.669Z,24.35
2023-07-27T04:04:37.294Z,24.35
2023-07-27T04:04:57.918Z,24.35
2023-07-27T04:05:18.526Z,24.33
2023-07-27T04:05:39.137Z,24.33
2023-07-27T04:05:59.754Z,24.36
2023-07-27T04:06:20.400Z,24.35
2023-07-27T04:06:41.010Z,24.38
2023-07-27T04:07:01.622Z,24.33
2023-07-27T04:07:22.229Z,24.33
2023-07-27T04:07:42.845Z,24.35
2023-07-27T04:08:03.454Z,24.36
2023-07-27T04:08:24.081Z,24.33
2023-07-27T04:08:44.687Z,24.35
2023-07-27T04:09:05.312Z,24.36
2023-07-27T04:09:25.944Z,24.36
2023-07-27T04:09:46.546Z,24.36
2023-07-27T04:10:07.170Z,24.33
2023-07-27T04:10:27.783Z,24.35
2023-07-27T04:10:48.398Z,24.35
2023-07-27T04:11:09.012Z,24.36
2023-07-27T04:11:29.648Z,24.36
2023-07-27T04:11:50.250Z,24.35
2023-07-27T04:12:10.873Z,24.32
2023-07-27T04:12:31.490Z,24.33
2023-07-27T04:12:52.111Z,24.38
2023-07-27T04:13:12.737Z,24.36
2023-07-27T04:13:33.350Z,24.35
2023-07-27T04:13:53.970Z,24.35
2023-07-27T04:14:14.576Z,24.35
2023-07-27T04:14:35.176Z,24.33
2023-07-27T04:14:55.794Z,24.36
2023-07-27T04:15:16.442Z,24.36
2023-07-27T04:15:37.025Z,24.35
2023-07-27T04:15:57.637Z,24.36
2023-07-27T04:16:18.294Z,24.36
2023-07-27T04:16:38.926Z,24.32
2023-07-27T04:16:59.617Z,24.33
2023-07-27T04:17:20.288Z,24.33
2023-07-27T04:17:41.008Z,24.33
2023-07-27T04:18:01.731Z,24.36
2023-07-27T04:18:22.467Z,24.33
2023-07-27T04:18:43.140Z,24.32
2023-07-27T04:19:03.713Z,24.33
2023-07-27T04:19:24.338Z,24.32
2023-07-27T04:19:44.950Z,24.32
2023-07-27T04:20:05.615Z,24.32
2023-07-27T04:20:26.212Z,24.33
2023-07-27T04:20:46.847Z,24.33
2023-07-27T04:21:07.465Z,24.38
2023-07-27T04:21:28.086Z,24.32
2023-07-27T04:21:48.699Z,24.35
2023-07-27T04:22:09.317Z,24.33
2023-07-27T04:22:29.931Z,24.33
2023-07-27T04:22:50.554Z,24.32
2023-07-27T04:23:11.165Z,24.33
2023-07-27T04:23:31.809Z,24.33
2023-07-27T04:23:52.455Z,24.32
2023-07-27T04:24:13.115Z,24.33
2023-07-27T04:24:33.978Z,24.38
2023-07-27T04:24:54.676Z,24.33
2023-07-27T04:25:15.279Z,24.35
2023-07-27T04:25:35.892Z,24.32